SBRB

Plácido de Castro Airport

Rio Branco, Brazil
TAF SBRB 251600Z 2518/2618 25005KT 9999 BKN020 TX30/2518Z TN23/2605Z BECMG 2519/2521 SCT020 FEW030TCU PROB30 2523/2602 TS SCT015 FEW025CB BECMG 2605/2607 33005KT 8000 SCT005 PROB30 2607/2611 4000 BR BKN004 BECMG 2613/2615 24005KT SCT010 RMK PEN
Issued Valid From Valid To
Apr-25 @ 16:00 UTC
(2 hours ago)
Apr-25 @ 18:00 UTC
(18 minutes ago)
Apr-26 @ 18:00 UTC
(in 24 hours)
Apr-25 @ 18:00 to Apr-25 @ 19:00
TAF SBRB 251600Z 2518/2618 25005KT 9999 BKN020 TX30/2518Z TN23/2605Z
Wind Visibility Clouds
250° at 5 knots 10,000+ meters
  • Broken at 2,000' AGL
Becoming Apr-25 @ 19:00 to Apr-26 @ 05:00
BECMG 2519/2521 SCT020 FEW030TCU
Wind Visibility Clouds
250° at 5 knots 10,000+ meters
  • Scattered at 2,000' AGL
  • Few at 3,000' AGL
Probable  (Probability 30%) Apr-25 @ 23:00 to Apr-26 @ 02:00
PROB30 2523/2602 TS SCT015 FEW025CB
Clouds Conditions
  • Scattered at 1,500' AGL
  • Few at 2,500' AGL
  • Thunderstorm
Becoming Apr-26 @ 05:00 to Apr-26 @ 13:00
BECMG 2605/2607 33005KT 8000 SCT005
Wind Visibility Clouds
330° at 5 knots 7,998 meters
  • Scattered at 500' AGL
Probable  (Probability 30%) Apr-26 @ 07:00 to Apr-26 @ 11:00
PROB30 2607/2611 4000 BR BKN004
Visibility Clouds Conditions
4,007 meters
  • Broken at 400' AGL
  • Mist
Becoming Apr-26 @ 13:00 to Apr-26 @ 18:00
BECMG 2613/2615 24005KT SCT010 RMK PEN
Wind Visibility Clouds
240° at 5 knots 7,998 meters
  • Scattered at 1,000' AGL
TAF SBRB 251600Z 2518/2618 25005KT 9999 BKN020 TX30/2518Z TN23/2605Z BECMG 2519/2521 SCT020 FEW030TCU PROB30 2523/2602 TS SCT015 FEW025CB BECMG 2605/2607 33005KT 8000 SCT005 PROB30 2607/2611 4000 BR BKN004 BECMG 2613/2615 24005KT SCT010 RMK PEN
Issued Apr-25 @ 16:00 UTC
(2 hours ago)
Valid From Apr-25 @ 18:00 UTC
(18 minutes ago)
Valid To Apr-26 @ 18:00 UTC
(in 24 hours)
Apr-25 @ 18:00 - Apr-25 @ 19:00
Wind Visibility
250° at 5 knots 10,000+ meters
Clouds
  • Broken at 2,000' AGL
Becoming Apr-25 @ 19:00 - Apr-26 @ 05:00
Wind Visibility
250° at 5 knots 10,000+ meters
Clouds
  • Scattered at 2,000' AGL
  • Few at 3,000' AGL
Probability 30% Probable Apr-25 @ 23:00 - Apr-26 @ 02:00
Clouds
  • Scattered at 1,500' AGL
  • Few at 2,500' AGL
Conditions
  • Thunderstorm
Becoming Apr-26 @ 05:00 - Apr-26 @ 13:00
Wind Visibility
330° at 5 knots 7,998 meters
Clouds
  • Scattered at 500' AGL
Probability 30% Probable Apr-26 @ 07:00 - Apr-26 @ 11:00
Clouds
  • Broken at 400' AGL
Conditions
  • Mist
Becoming Apr-26 @ 13:00 - Apr-26 @ 18:00
Wind Visibility
240° at 5 knots 7,998 meters
Clouds
  • Scattered at 1,000' AGL